Time;durP1;ratioP1;P1;durP2;ratioP2;P2;SDS_P1;SDS_P2;PMS_P1;PMS_P2;Temp;Humidity;BMP_temperature;BMP_pressure;BME280_temperature;BME280_humidity;BME280_pressure;Samples;Min_cycle;Max_cycle;Signal;HPM_P1;HPM_P2
2022/12/16 00:01:25;;;;;;;25.32;15.10;;;;;;;3.79;80.63;101103.55;1714237;82;26005;-64
2022/12/16 00:03:55;;;;;;;22.45;14.25;;;;;;;3.84;80.98;101105.51;1714465;83;26151;-64
2022/12/16 00:06:26;;;;;;;22.32;14.00;;;;;;;3.85;81.06;101115.66;1713955;83;27472;-64
2022/12/16 00:08:52;;;;;;;21.97;14.63;;;;;;;3.87;81.32;101114.63;1695529;83;26259;-64
2022/12/16 00:11:19;;;;;;;21.05;13.32;;;;;;;3.87;81.30;101123.10;1681789;85;25820;-64
2022/12/16 00:13:47;;;;;;;24.00;15.10;;;;;;;3.94;81.50;101128.47;1705936;83;25780;-64
2022/12/16 00:16:17;;;;;;;26.57;14.98;;;;;;;3.99;81.46;101133.05;1713757;83;25515;-64
2022/12/16 00:18:45;;;;;;;23.00;14.75;;;;;;;4.05;81.35;101134.06;1697503;83;28284;-64
2022/12/16 00:21:13;;;;;;;27.20;15.50;;;;;;;4.10;81.29;101127.16;1650640;86;25893;-65
2022/12/16 00:23:40;;;;;;;23.47;15.43;;;;;;;4.17;81.39;101123.69;1640185;86;25801;-64
2022/12/16 00:26:08;;;;;;;32.42;16.65;;;;;;;4.23;81.40;101110.02;1639316;87;25848;-64
2022/12/16 00:28:36;;;;;;;25.85;15.28;;;;;;;4.32;81.63;101112.61;1661755;85;25752;-64
2022/12/16 00:31:05;;;;;;;33.15;15.25;;;;;;;4.40;81.65;101109.03;1679919;85;27596;-64
2022/12/16 00:33:32;;;;;;;33.92;15.68;;;;;;;4.41;81.12;101105.91;1673901;85;25548;-65
2022/12/16 00:35:59;;;;;;;24.57;15.80;;;;;;;4.36;80.66;101115.50;1669811;85;25819;-64
2022/12/16 00:38:27;;;;;;;26.40;15.20;;;;;;;4.31;80.46;101120.22;1655681;85;25808;-64
2022/12/16 00:40:54;;;;;;;26.95;17.05;;;;;;;4.26;80.27;101124.95;1639843;86;25519;-64
2022/12/16 00:43:22;;;;;;;25.30;15.88;;;;;;;4.21;80.30;101127.39;1618891;87;46454;-64
2022/12/16 00:45:48;;;;;;;27.42;17.60;;;;;;;4.21;80.34;101130.54;1639657;86;25812;-65
2022/12/16 00:48:16;;;;;;;24.00;14.28;;;;;;;4.21;80.52;101126.06;1652870;85;25757;-64
2022/12/16 00:50:52;;;;;;;23.07;13.80;;;;;;;4.25;80.69;101125.44;1670033;84;26379;-64
2022/12/16 00:53:21;;;;;;;26.82;14.95;;;;;;;4.27;80.84;101117.36;1669785;85;25742;-64
2022/12/16 00:55:48;;;;;;;26.62;14.93;;;;;;;4.34;81.16;101127.59;1669473;85;28341;-64
2022/12/16 00:58:15;;;;;;;33.67;15.50;;;;;;;4.38;81.04;101128.27;1664891;84;25813;-65
2022/12/16 01:00:42;;;;;;;40.55;17.23;;;;;;;4.36;80.89;101117.67;1724161;81;26403;-64
2022/12/16 01:03:09;;;;;;;45.28;16.50;;;;;;;4.37;81.08;101113.23;1709716;82;25760;-64
2022/12/16 01:05:38;;;;;;;42.90;17.32;;;;;;;4.38;80.85;101117.12;1728654;81;25773;-64
2022/12/16 01:08:05;;;;;;;38.75;16.87;;;;;;;4.37;80.58;101122.55;1718892;83;27631;-64
2022/12/16 01:10:32;;;;;;;61.15;18.98;;;;;;;4.36;80.39;101116.34;1717341;83;25806;-64
2022/12/16 01:12:59;;;;;;;60.23;17.90;;;;;;;4.33;79.98;101111.22;1717118;83;25732;-64
2022/12/16 01:15:26;;;;;;;62.20;17.20;;;;;;;4.29;79.85;101108.33;1717673;83;25894;-64
2022/12/16 01:17:53;;;;;;;52.75;17.92;;;;;;;4.22;79.70;101117.61;1713069;83;25822;-64
2022/12/16 01:20:19;;;;;;;42.27;17.60;;;;;;;4.13;79.52;101123.45;1717490;83;27467;-64
2022/12/16 01:22:46;;;;;;;36.08;18.37;;;;;;;4.04;79.27;101115.05;1717310;82;25792;-64
2022/12/16 01:25:13;;;;;;;41.80;16.32;;;;;;;3.95;79.07;101112.89;1717036;82;26513;-64
2022/12/16 01:27:40;;;;;;;36.58;17.12;;;;;;;3.91;79.15;101106.00;1713004;82;25841;-65
2022/12/16 01:30:09;;;;;;;27.25;15.95;;;;;;;3.83;79.13;101109.11;1677403;85;25828;-64
2022/12/16 01:32:37;;;;;;;29.05;16.42;;;;;;;3.75;79.14;101106.85;1682864;84;27454;-64
2022/12/16 01:35:05;;;;;;;25.02;16.23;;;;;;;3.71;79.30;101109.31;1720697;81;25735;-64
2022/12/16 01:37:33;;;;;;;20.08;14.85;;;;;;;3.67;79.37;101106.91;1736477;80;25853;-64
2022/12/16 01:40:01;;;;;;;28.23;15.53;;;;;;;3.64;79.52;101106.57;1719849;83;25786;-64
2022/12/16 01:42:30;;;;;;;24.80;14.73;;;;;;;3.64;79.67;101110.56;1719976;81;25721;-64
2022/12/16 01:44:57;;;;;;;24.25;14.87;;;;;;;3.66;79.76;101109.17;1720688;83;27412;-64
2022/12/16 01:47:30;;;;;;;19.90;13.80;;;;;;;3.69;80.10;101113.85;1697346;83;25797;-64
2022/12/16 01:50:05;;;;;;;19.50;13.65;;;;;;;3.71;80.05;101117.30;1692355;84;25698;-64
2022/12/16 01:52:37;;;;;;;19.85;13.35;;;;;;;3.74;80.30;101107.80;1699181;83;26471;-64
2022/12/16 01:55:19;;;;;;;21.82;14.33;;;;;;;3.82;80.54;101120.69;1720060;81;25487;-64
2022/12/16 01:57:56;;;;;;;21.12;14.23;;;;;;;3.90;80.78;101125.58;1719052;83;27494;-64
2022/12/16 02:00:23;;;;;;;19.70;13.83;;;;;;;3.96;80.88;101125.71;1701843;82;26004;-65
2022/12/16 02:02:52;;;;;;;20.55;12.70;;;;;;;4.03;81.00;101133.28;1699712;84;25489;-64
2022/12/16 02:05:21;;;;;;;19.55;13.05;;;;;;;4.10;81.01;101128.94;1700931;84;25799;-64
2022/12/16 02:08:00;;;;;;;18.05;12.50;;;;;;;4.14;81.04;101135.83;1699924;83;25716;-64
2022/12/16 02:10:43;;;;;;;18.05;12.05;;;;;;;4.18;80.98;101139.56;1701345;84;27465;-64
2022/12/16 02:13:41;;;;;;;21.27;11.75;;;;;;;4.26;81.29;101124.47;1701450;84;33115;-64
2022/12/16 02:16:16;;;;;;;17.07;12.43;;;;;;;4.30;80.94;101113.20;1700273;83;25725;-64
2022/12/16 02:19:03;;;;;;;19.67;13.15;;;;;;;4.34;80.74;101114.72;1682321;84;25769;-64
2022/12/16 02:21:59;;;;;;;19.10;12.82;;;;;;;4.37;80.77;101121.22;1696509;84;25792;-64
2022/12/16 02:24:48;;;;;;;18.25;12.85;;;;;;;4.42;81.00;101112.48;1695410;84;27442;-64
2022/12/16 02:27:57;;;;;;;17.90;12.30;;;;;;;4.45;80.96;101121.64;1696552;84;25802;-64
2022/12/16 02:30:38;;;;;;;17.92;12.85;;;;;;;4.47;80.51;101117.09;1697208;83;25701;-64
2022/12/16 02:33:21;;;;;;;20.72;12.18;;;;;;;4.45;80.51;101114.09;1698810;83;25844;-64
2022/12/16 02:36:11;;;;;;;20.82;13.03;;;;;;;4.50;80.85;101112.05;1701550;83;25650;-65
2022/12/16 02:38:55;;;;;;;16.00;12.07;;;;;;;4.57;81.17;101113.41;1700978;84;28419;-65
2022/12/16 02:41:34;;;;;;;16.60;10.98;;;;;;;4.65;81.26;101111.15;1701426;84;25705;-64
2022/12/16 02:44:10;;;;;;;17.15;11.48;;;;;;;4.74;81.52;101118.22;1697025;84;25733;-65
2022/12/16 02:46:44;;;;;;;18.75;12.18;;;;;;;4.83;81.46;101116.34;1696507;83;25851;-64
2022/12/16 02:49:19;;;;;;;16.42;11.43;;;;;;;4.90;81.37;101108.85;1696055;83;25741;-64
2022/12/16 02:51:47;;;;;;;17.35;11.73;;;;;;;4.93;81.03;101112.19;1696551;84;28393;-64
2022/12/16 02:54:17;;;;;;;17.67;12.13;;;;;;;4.97;80.91;101123.53;1696128;83;25920;-65
2022/12/16 02:56:53;;;;;;;17.20;12.03;;;;;;;5.02;80.98;101132.09;1696500;84;25731;-65
2022/12/16 02:59:30;;;;;;;17.35;12.25;;;;;;;5.08;81.02;101129.55;1694549;82;25851;-65
2022/12/16 03:02:20;;;;;;;14.60;10.45;;;;;;;5.08;80.64;101119.75;1696453;83;25747;-64
2022/12/16 03:05:10;;;;;;;15.63;10.18;;;;;;;5.07;80.88;101118.03;1685349;84;26928;-65
2022/12/16 03:07:40;;;;;;;14.58;10.38;;;;;;;5.07;80.90;101114.49;1711996;83;25806;-65
2022/12/16 03:10:13;;;;;;;18.98;12.03;;;;;;;5.08;81.06;101101.09;1712012;83;25808;-64
2022/12/16 03:12:44;;;;;;;17.37;11.05;;;;;;;5.09;80.92;101089.93;1712677;83;25785;-65
2022/12/16 03:15:16;;;;;;;15.75;10.08;;;;;;;5.13;80.91;101092.81;1714235;83;25764;-65
2022/12/16 03:17:45;;;;;;;18.52;10.45;;;;;;;5.12;80.94;101100.42;1722794;82;27530;-65
2022/12/16 03:20:17;;;;;;;13.22;8.65;;;;;;;5.09;81.24;101100.14;1711710;83;25818;-65
2022/12/16 03:22:47;;;;;;;10.78;7.05;;;;;;;5.10;81.34;101096.52;1712700;83;25723;-65
2022/12/16 03:25:15;;;;;;;12.25;7.67;;;;;;;5.15;81.68;101090.91;1714502;83;25894;-65
2022/12/16 03:27:56;;;;;;;9.05;6.35;;;;;;;5.17;81.82;101094.32;1691891;82;25809;-64
2022/12/16 03:30:35;;;;;;;9.30;6.28;;;;;;;5.21;82.06;101086.53;1665735;83;28471;-65
2022/12/16 03:33:07;;;;;;;8.13;5.80;;;;;;;5.25;82.07;101090.70;1721695;82;25817;-65
2022/12/16 03:35:44;;;;;;;7.55;5.55;;;;;;;5.29;82.04;101079.41;1711586;83;25763;-65
2022/12/16 03:38:13;;;;;;;11.35;5.47;;;;;;;5.22;82.17;101049.58;1745997;81;25725;-64
2022/12/16 03:40:43;;;;;;;11.30;6.97;;;;;;;5.40;82.06;101068.91;1763888;81;25716;-64
2022/12/16 03:43:13;;;;;;;11.12;6.00;;;;;;;5.44;82.04;101064.23;1736443;81;27566;-64
2022/12/16 03:45:44;;;;;;;13.40;7.75;;;;;;;5.47;82.11;101056.05;1714529;82;26092;-65
2022/12/16 03:48:13;;;;;;;9.73;6.40;;;;;;;5.49;81.97;101054.98;1714500;83;25719;-65
2022/12/16 03:50:40;;;;;;;11.30;7.20;;;;;;;5.51;81.87;101068.71;1714141;83;26475;-65
2022/12/16 03:53:07;;;;;;;10.65;6.47;;;;;;;5.54;81.86;101081.38;1697257;82;25777;-65
2022/12/16 03:55:34;;;;;;;10.93;6.72;;;;;;;5.60;81.88;101081.48;1712307;81;27543;-65
2022/12/16 03:58:01;;;;;;;10.88;6.17;;;;;;;5.63;81.83;101075.96;1712094;81;25528;-65
2022/12/16 04:00:29;;;;;;;10.93;6.33;;;;;;;5.67;81.70;101085.47;1701846;83;25804;-65
2022/12/16 04:02:55;;;;;;;11.73;6.75;;;;;;;5.68;81.66;101081.86;1698448;83;25783;-65
2022/12/16 04:05:22;;;;;;;9.98;6.83;;;;;;;5.64;81.67;101073.19;1701297;84;25865;-65
2022/12/16 04:07:49;;;;;;;12.73;7.12;;;;;;;5.61;81.76;101060.52;1701513;83;27517;-65
2022/12/16 04:24:17;;;;;;;10.50;7.62;;;;;;;5.56;81.74;101068.81;1701019;83;25781;-64
2022/12/16 04:29:24;;;;;;;13.50;8.00;;;;;;;5.37;82.50;101062.91;1703718;84;26727;-65
2022/12/16 04:31:52;;;;;;;13.05;6.87;;;;;;;5.37;82.58;101072.23;1705376;84;25793;-64
2022/12/16 04:34:26;;;;;;;10.15;7.30;;;;;;;5.40;82.66;101064.05;1700313;83;27466;-64
